createdAt,value
2023-05-07T00:01:24.195Z,47.76
2023-05-07T00:03:51.086Z,47.57
2023-05-07T00:06:18.268Z,47.45
2023-05-07T00:08:44.956Z,48.00
2023-05-07T00:11:11.680Z,47.90
2023-05-07T00:13:38.471Z,48.27
2023-05-07T00:16:06.257Z,48.25
2023-05-07T00:18:32.980Z,48.42
2023-05-07T00:20:59.653Z,48.11
2023-05-07T00:23:26.421Z,48.21
2023-05-07T00:25:53.395Z,48.47
2023-05-07T00:28:20.096Z,48.29
2023-05-07T00:30:46.782Z,48.73
2023-05-07T00:33:13.617Z,48.70
2023-05-07T00:35:40.358Z,48.70
2023-05-07T00:38:07.046Z,48.54
2023-05-07T00:40:33.834Z,48.79
2023-05-07T00:43:01.089Z,48.59
2023-05-07T00:45:29.507Z,48.83
2023-05-07T00:48:02.123Z,48.90
2023-05-07T00:50:29.295Z,49.09
2023-05-07T00:52:56.498Z,49.30
2023-05-07T00:55:24.571Z,49.15
2023-05-07T00:57:52.254Z,49.15
2023-05-07T01:00:20.057Z,49.14
2023-05-07T01:02:48.027Z,49.40
2023-05-07T01:05:18.653Z,49.25
2023-05-07T01:07:46.735Z,49.23
2023-05-07T01:10:13.935Z,49.19
2023-05-07T01:12:42.425Z,49.41
2023-05-07T01:15:10.661Z,48.99
2023-05-07T01:17:39.179Z,49.14
2023-05-07T01:20:08.390Z,49.34
2023-05-07T01:22:37.993Z,49.45
2023-05-07T01:25:06.154Z,49.29
2023-05-07T01:27:34.703Z,49.42
2023-05-07T01:30:01.433Z,49.75
2023-05-07T01:32:38.502Z,49.70
2023-05-07T01:35:08.579Z,49.90
2023-05-07T01:37:35.319Z,49.64
2023-05-07T01:40:03.775Z,49.51
2023-05-07T01:42:30.850Z,49.57
2023-05-07T01:44:57.700Z,49.53
2023-05-07T01:47:26.307Z,49.86
2023-05-07T01:49:54.550Z,49.82
2023-05-07T01:52:21.233Z,50.03
2023-05-07T01:54:47.942Z,49.86
2023-05-07T01:57:14.624Z,50.35
2023-05-07T01:59:41.321Z,50.17
2023-05-07T02:02:08.208Z,50.05
2023-05-07T02:04:34.998Z,50.40
2023-05-07T02:07:01.687Z,50.54
2023-05-07T02:09:28.357Z,50.48
2023-05-07T02:11:55.062Z,50.60
2023-05-07T02:14:21.742Z,50.66
2023-05-07T02:16:48.669Z,50.45
2023-05-07T02:19:16.191Z,50.76
2023-05-07T02:21:42.972Z,50.78
2023-05-07T02:24:09.894Z,50.94
2023-05-07T02:26:36.607Z,50.65
2023-05-07T02:29:03.566Z,50.88
2023-05-07T02:31:30.343Z,50.83
2023-05-07T02:33:57.151Z,50.85
2023-05-07T02:36:23.828Z,50.96
2023-05-07T02:38:50.501Z,50.89
2023-05-07T02:41:17.180Z,51.23
2023-05-07T02:43:43.877Z,51.45
2023-05-07T02:46:11.237Z,51.32
2023-05-07T02:48:38.032Z,51.48
2023-05-07T02:51:05.301Z,51.65
2023-05-07T02:53:32.348Z,51.48
2023-05-07T02:56:01.287Z,51.13
2023-05-07T02:58:28.130Z,51.71
2023-05-07T03:00:55.958Z,51.81
2023-05-07T03:03:22.985Z,51.79
2023-05-07T03:05:49.763Z,51.82
2023-05-07T03:08:16.544Z,51.64
2023-05-07T03:10:43.310Z,51.86
2023-05-07T03:13:10.184Z,51.50
2023-05-07T03:15:37.598Z,51.47
2023-05-07T03:18:04.510Z,51.58
2023-05-07T03:20:31.456Z,51.75
2023-05-07T03:22:58.235Z,51.58
2023-05-07T03:25:25.150Z,51.68
2023-05-07T03:27:52.002Z,52.04
2023-05-07T03:30:19.833Z,51.85
2023-05-07T03:32:47.104Z,51.94
2023-05-07T03:35:13.855Z,51.91
2023-05-07T03:37:40.981Z,52.33
2023-05-07T03:40:09.335Z,52.17
2023-05-07T03:42:36.215Z,52.18
2023-05-07T03:45:03.098Z,52.62
2023-05-07T03:47:29.857Z,52.19
2023-05-07T03:49:56.962Z,52.29
2023-05-07T03:52:26.970Z,52.83
2023-05-07T03:54:54.679Z,52.93
2023-05-07T03:57:21.893Z,53.11
2023-05-07T03:59:48.831Z,52.69
2023-05-07T04:02:15.657Z,53.05
2023-05-07T04:04:42.401Z,52.86
2023-05-07T04:07:09.198Z,53.05
2023-05-07T04:09:35.900Z,53.29
2023-05-07T04:12:02.641Z,53.29
2023-05-07T04:14:29.385Z,53.79
2023-05-07T04:16:56.206Z,53.50
2023-05-07T04:19:22.924Z,53.42
2023-05-07T04:21:49.983Z,53.92
2023-05-07T04:24:17.083Z,53.81
2023-05-07T04:26:43.764Z,53.49
2023-05-07T04:29:10.526Z,53.76
2023-05-07T04:31:37.323Z,53.90
2023-05-07T04:34:04.056Z,54.05
2023-05-07T04:36:31.674Z,54.10
2023-05-07T04:38:58.370Z,54.25
2023-05-07T04:41:25.065Z,53.88
2023-05-07T04:43:52.649Z,54.16
2023-05-07T04:46:19.380Z,54.42
2023-05-07T04:48:46.569Z,54.38
2023-05-07T04:51:13.553Z,54.61
2023-05-07T04:53:40.842Z,54.75
2023-05-07T04:56:07.865Z,54.62
2023-05-07T04:58:34.574Z,55.20
2023-05-07T05:01:01.713Z,55.27
2023-05-07T05:03:28.652Z,55.41
2023-05-07T05:05:55.436Z,55.20
2023-05-07T05:08:22.207Z,55.21
2023-05-07T05:10:51.030Z,55.55
2023-05-07T05:13:18.043Z,55.20
2023-05-07T05:15:45.080Z,55.43
2023-05-07T05:18:11.745Z,55.80
2023-05-07T05:20:38.443Z,55.41
2023-05-07T05:23:05.242Z,55.58
2023-05-07T05:25:32.147Z,55.43
2023-05-07T05:27:58.887Z,55.47
2023-05-07T05:30:25.838Z,55.11
2023-05-07T05:32:52.515Z,55.71
2023-05-07T05:35:19.264Z,55.32
2023-05-07T05:37:45.984Z,55.74
2023-05-07T05:40:13.364Z,55.87
2023-05-07T05:42:40.872Z,55.13
2023-05-07T05:45:08.195Z,55.23
2023-05-07T05:47:34.988Z,55.04
2023-05-07T05:50:01.719Z,54.90
2023-05-07T05:52:28.443Z,55.46
2023-05-07T05:54:55.231Z,54.83
2023-05-07T05:57:22.145Z,54.78
2023-05-07T05:59:48.933Z,55.20
2023-05-07T06:02:15.838Z,54.86
2023-05-07T06:04:44.054Z,54.71
2023-05-07T06:07:10.874Z,54.79
2023-05-07T06:09:37.515Z,54.81
2023-05-07T06:12:04.389Z,54.91
2023-05-07T06:14:31.343Z,54.50
2023-05-07T06:16:58.622Z,54.18
2023-05-07T06:19:27.604Z,54.31
2023-05-07T06:21:54.307Z,54.51
2023-05-07T06:24:21.018Z,54.36
2023-05-07T06:26:47.723Z,54.05
2023-05-07T06:29:14.429Z,54.10
2023-05-07T06:31:41.305Z,53.72
2023-05-07T06:34:08.564Z,54.13
2023-05-07T06:36:35.505Z,53.80
2023-05-07T06:39:02.464Z,53.67
2023-05-07T06:41:29.146Z,53.84
2023-05-07T06:43:55.827Z,53.59
2023-05-07T06:46:22.531Z,53.46
2023-05-07T06:48:49.241Z,53.36
2023-05-07T06:51:15.981Z,52.86
2023-05-07T06:53:42.666Z,53.11
2023-05-07T06:56:09.322Z,52.98
2023-05-07T06:58:36.066Z,52.75
2023-05-07T07:01:02.807Z,52.56
2023-05-07T07:03:29.537Z,52.53
2023-05-07T07:05:56.236Z,52.30
2023-05-07T07:08:23.692Z,52.18
2023-05-07T07:10:50.515Z,51.55
2023-05-07T07:13:17.399Z,51.56
2023-05-07T07:15:44.718Z,51.52
2023-05-07T07:18:11.857Z,51.52
2023-05-07T07:20:38.686Z,51.22
2023-05-07T07:23:05.818Z,52.31
2023-05-07T07:25:32.926Z,52.76
2023-05-07T07:27:59.558Z,52.40
2023-05-07T07:30:27.156Z,51.82
2023-05-07T07:32:54.187Z,50.75
2023-05-07T07:35:20.902Z,49.67
2023-05-07T07:37:50.920Z,50.22
2023-05-07T07:40:17.630Z,49.57
2023-05-07T07:42:44.345Z,49.20
2023-05-07T07:45:11.659Z,49.03
2023-05-07T07:47:38.417Z,48.59
2023-05-07T07:50:05.813Z,48.63
2023-05-07T07:52:32.474Z,48.57
2023-05-07T07:54:59.147Z,48.23
2023-05-07T07:57:25.912Z,48.79
2023-05-07T07:59:52.585Z,48.44
2023-05-07T08:02:19.498Z,47.73
2023-05-07T08:04:46.551Z,48.10
2023-05-07T08:07:13.350Z,47.37
2023-05-07T08:09:41.064Z,47.86
2023-05-07T08:12:08.431Z,47.26
2023-05-07T08:14:36.019Z,47.19
2023-05-07T08:17:02.786Z,46.58
2023-05-07T08:19:29.590Z,46.62
2023-05-07T08:21:56.641Z,46.79
2023-05-07T08:24:23.384Z,46.47
2023-05-07T08:26:50.706Z,45.93
2023-05-07T08:29:17.355Z,45.92
2023-05-07T08:31:44.073Z,45.90
2023-05-07T08:34:10.838Z,46.10
2023-05-07T08:36:37.496Z,46.24
2023-05-07T08:39:04.521Z,46.09
2023-05-07T08:41:32.316Z,45.70
2023-05-07T08:44:01.213Z,45.47
2023-05-07T08:46:32.970Z,44.92
2023-05-07T08:48:59.788Z,44.73
2023-05-07T08:51:26.746Z,44.67
2023-05-07T08:53:53.442Z,44.99
2023-05-07T08:56:22.463Z,44.16
2023-05-07T08:58:49.579Z,43.88
2023-05-07T09:01:18.022Z,44.36
2023-05-07T09:03:48.412Z,44.22
2023-05-07T09:06:16.427Z,44.53
2023-05-07T09:08:50.192Z,43.79
2023-05-07T09:11:16.841Z,43.78
2023-05-07T09:13:43.852Z,43.94
2023-05-07T09:16:14.431Z,43.33
2023-05-07T09:18:45.931Z,43.43
2023-05-07T09:21:16.320Z,42.89
2023-05-07T09:23:43.200Z,43.64
2023-05-07T09:26:15.671Z,42.97
2023-05-07T09:28:43.149Z,43.12
2023-05-07T09:31:11.049Z,43.36
2023-05-07T09:33:38.499Z,43.17
2023-05-07T09:36:07.069Z,43.05
2023-05-07T09:38:34.984Z,42.96
2023-05-07T09:41:13.091Z,42.60
2023-05-07T09:43:41.264Z,41.63
2023-05-07T09:46:12.608Z,41.49
2023-05-07T09:48:41.579Z,41.02
2023-05-07T09:51:15.739Z,41.53
2023-05-07T09:53:44.296Z,41.02
2023-05-07T09:56:12.192Z,41.26
2023-05-07T09:58:42.508Z,40.82
2023-05-07T10:01:11.548Z,40.86
2023-05-07T10:03:40.857Z,40.31
2023-05-07T10:06:09.480Z,39.99
2023-05-07T10:08:37.647Z,39.78
2023-05-07T10:11:06.113Z,39.10
2023-05-07T10:13:36.763Z,38.23
2023-05-07T10:16:06.585Z,37.70
2023-05-07T10:18:34.632Z,38.03
2023-05-07T10:21:16.617Z,38.18
2023-05-07T10:23:46.518Z,37.74
2023-05-07T10:26:14.633Z,36.57
2023-05-07T10:28:45.949Z,37.29
2023-05-07T10:31:36.097Z,36.67
2023-05-07T10:34:08.984Z,35.89
2023-05-07T10:36:38.275Z,36.44
2023-05-07T10:39:07.332Z,36.32
2023-05-07T10:41:34.088Z,35.60
2023-05-07T10:44:03.214Z,35.81
2023-05-07T10:46:30.451Z,36.14
2023-05-07T10:49:03.921Z,36.17
2023-05-07T10:51:32.503Z,35.94
2023-05-07T10:54:11.696Z,35.40
2023-05-07T10:56:39.159Z,34.90
2023-05-07T10:59:32.470Z,35.34
2023-05-07T11:02:05.228Z,35.25
2023-05-07T11:04:35.930Z,35.04
2023-05-07T11:07:13.593Z,34.88
2023-05-07T11:09:57.050Z,34.92
2023-05-07T11:12:39.444Z,34.27
2023-05-07T11:15:10.962Z,34.81
2023-05-07T11:17:54.114Z,34.40
2023-05-07T11:20:21.552Z,34.20
2023-05-07T11:22:49.086Z,34.19
2023-05-07T11:25:22.794Z,33.72
2023-05-07T11:27:49.660Z,32.77
2023-05-07T11:30:21.943Z,32.90
2023-05-07T11:32:49.711Z,33.07
2023-05-07T11:35:16.959Z,33.29
2023-05-07T11:37:45.917Z,33.10
2023-05-07T11:40:15.212Z,33.34
2023-05-07T11:42:44.248Z,32.82
2023-05-07T11:45:11.741Z,32.96
2023-05-07T11:47:38.697Z,32.87
2023-05-07T11:50:08.818Z,32.16
2023-05-07T11:52:36.501Z,31.46
2023-05-07T11:55:07.174Z,31.05
2023-05-07T11:57:35.686Z,31.25
2023-05-07T12:00:05.629Z,31.51
2023-05-07T12:02:32.702Z,31.61
2023-05-07T12:05:01.541Z,31.29
2023-05-07T12:07:28.231Z,31.21
2023-05-07T12:09:54.952Z,31.06
2023-05-07T12:12:21.627Z,31.31
2023-05-07T12:14:49.097Z,31.07
2023-05-07T12:17:17.384Z,30.87
2023-05-07T12:19:46.223Z,31.03
2023-05-07T12:22:13.683Z,31.24
2023-05-07T12:24:48.736Z,31.24
2023-05-07T12:27:16.836Z,31.43
2023-05-07T12:29:51.268Z,30.91
2023-05-07T12:32:19.683Z,30.81
2023-05-07T12:34:47.319Z,31.11
2023-05-07T12:37:14.096Z,31.29
2023-05-07T12:39:51.325Z,31.08
2023-05-07T12:42:24.587Z,31.19
2023-05-07T12:44:51.697Z,30.79
2023-05-07T12:47:18.401Z,31.02
2023-05-07T12:49:46.953Z,31.46
2023-05-07T12:52:14.160Z,31.36
2023-05-07T12:54:40.977Z,31.21
2023-05-07T12:57:11.243Z,31.19
2023-05-07T12:59:40.975Z,31.24
2023-05-07T13:02:08.653Z,31.01
2023-05-07T13:04:36.126Z,31.00
2023-05-07T13:07:03.463Z,30.56
2023-05-07T13:09:30.444Z,30.55
2023-05-07T13:11:57.185Z,30.93
2023-05-07T13:14:23.961Z,30.63
2023-05-07T13:16:50.796Z,30.82
2023-05-07T13:19:18.572Z,30.97
2023-05-07T13:21:45.226Z,31.09
2023-05-07T13:24:11.873Z,30.78
2023-05-07T13:26:38.537Z,30.74
2023-05-07T13:29:05.172Z,30.80
2023-05-07T13:31:31.968Z,31.08
2023-05-07T13:33:58.742Z,30.54
2023-05-07T13:36:25.402Z,30.27
2023-05-07T13:38:52.876Z,30.53
2023-05-07T13:41:19.725Z,30.92
2023-05-07T13:43:46.518Z,30.74
2023-05-07T13:46:13.296Z,30.67
2023-05-07T13:48:40.119Z,30.66
2023-05-07T13:51:06.836Z,31.08
2023-05-07T13:53:33.495Z,30.78
2023-05-07T13:56:00.176Z,30.57
2023-05-07T13:58:26.886Z,30.46
2023-05-07T14:00:53.634Z,30.63
2023-05-07T14:03:20.905Z,30.40
2023-05-07T14:05:50.230Z,30.43
2023-05-07T14:08:19.673Z,30.41
2023-05-07T14:10:47.241Z,30.04
2023-05-07T14:13:13.915Z,29.58
2023-05-07T14:15:41.408Z,29.93
2023-05-07T14:18:08.180Z,30.05
2023-05-07T14:20:37.756Z,29.71
2023-05-07T14:23:04.482Z,29.72
2023-05-07T14:25:31.421Z,29.51
2023-05-07T14:27:58.086Z,29.19
2023-05-07T14:30:25.584Z,29.21
2023-05-07T14:32:52.340Z,29.22
2023-05-07T14:35:19.147Z,29.29
2023-05-07T14:37:45.853Z,29.64
2023-05-07T14:40:13.010Z,29.28
2023-05-07T14:42:39.908Z,29.15
2023-05-07T14:45:07.171Z,28.92
2023-05-07T14:47:33.871Z,28.75
2023-05-07T14:50:02.285Z,28.88
2023-05-07T14:52:29.118Z,28.78
2023-05-07T14:54:55.840Z,28.75
2023-05-07T14:57:22.773Z,28.68
2023-05-07T14:59:49.575Z,28.66
2023-05-07T15:02:16.638Z,28.60
2023-05-07T15:04:47.085Z,28.65
2023-05-07T15:07:17.416Z,28.87
2023-05-07T15:09:45.083Z,29.06
2023-05-07T15:12:12.629Z,29.04
2023-05-07T15:14:40.320Z,28.82
2023-05-07T15:17:07.077Z,29.20
2023-05-07T15:19:33.811Z,28.83
2023-05-07T15:22:04.057Z,28.99
2023-05-07T15:24:31.850Z,28.84
2023-05-07T15:26:59.305Z,29.14
2023-05-07T15:29:26.248Z,28.96
2023-05-07T15:31:53.222Z,28.96
2023-05-07T15:34:19.983Z,28.95
2023-05-07T15:36:46.736Z,28.92
2023-05-07T15:39:13.848Z,28.84
2023-05-07T15:41:40.623Z,28.87
2023-05-07T15:44:07.275Z,28.47
2023-05-07T15:46:33.922Z,28.46
2023-05-07T15:49:03.981Z,28.33
2023-05-07T15:51:31.954Z,28.44
2023-05-07T15:53:58.657Z,28.08
2023-05-07T15:56:25.443Z,27.97
2023-05-07T15:58:53.718Z,27.67
2023-05-07T16:01:20.434Z,27.61
2023-05-07T16:03:47.310Z,27.30
2023-05-07T16:06:14.128Z,27.09
2023-05-07T16:08:41.734Z,27.01
2023-05-07T16:11:08.437Z,26.92
2023-05-07T16:13:35.925Z,26.65
2023-05-07T16:16:02.820Z,26.69
2023-05-07T16:18:29.504Z,26.77
2023-05-07T16:20:56.496Z,27.04
2023-05-07T16:23:23.161Z,27.13
2023-05-07T16:25:49.934Z,27.06
2023-05-07T16:28:16.918Z,27.05
2023-05-07T16:30:43.929Z,27.18
2023-05-07T16:33:10.830Z,27.31
2023-05-07T16:35:37.536Z,27.11
2023-05-07T16:38:10.104Z,27.22
2023-05-07T16:40:40.391Z,27.10
2023-05-07T16:43:07.128Z,27.31
2023-05-07T16:45:33.958Z,27.28
2023-05-07T16:48:00.803Z,27.58
2023-05-07T16:50:27.525Z,27.72
2023-05-07T16:52:54.194Z,27.72
2023-05-07T16:55:20.966Z,27.84
2023-05-07T16:57:47.676Z,27.79
2023-05-07T17:00:14.941Z,27.71
2023-05-07T17:02:41.687Z,27.70
2023-05-07T17:05:08.988Z,27.91
2023-05-07T17:07:35.952Z,28.09
2023-05-07T17:10:03.206Z,28.16
2023-05-07T17:12:31.317Z,28.48
2023-05-07T17:15:00.589Z,28.09
2023-05-07T17:17:27.355Z,28.61
2023-05-07T17:19:54.048Z,28.90
2023-05-07T17:22:20.747Z,28.94
2023-05-07T17:24:47.765Z,28.97
2023-05-07T17:27:14.410Z,29.05
2023-05-07T17:29:41.309Z,29.02
2023-05-07T17:32:08.634Z,28.96
2023-05-07T17:34:35.396Z,29.14
2023-05-07T17:37:02.696Z,29.39
2023-05-07T17:39:29.604Z,29.20
2023-05-07T17:41:56.418Z,29.21
2023-05-07T17:44:23.274Z,29.34
2023-05-07T17:46:50.082Z,29.45
2023-05-07T17:49:17.160Z,29.74
2023-05-07T17:51:54.119Z,29.69
2023-05-07T17:54:21.852Z,29.52
2023-05-07T17:56:48.494Z,29.61
2023-05-07T17:59:15.347Z,29.68
2023-05-07T18:01:42.393Z,29.87
2023-05-07T18:04:09.131Z,30.22
2023-05-07T18:06:36.160Z,30.07
2023-05-07T18:09:03.092Z,30.16
2023-05-07T18:11:32.332Z,30.30
2023-05-07T18:13:59.627Z,30.40
2023-05-07T18:16:26.648Z,30.57
2023-05-07T18:18:53.365Z,30.75
2023-05-07T18:21:20.046Z,30.68
2023-05-07T18:23:47.391Z,30.61
2023-05-07T18:26:14.509Z,30.78
2023-05-07T18:28:41.285Z,30.76
2023-05-07T18:31:07.993Z,30.71
2023-05-07T18:33:34.646Z,30.90
2023-05-07T18:36:01.408Z,30.85
2023-05-07T18:38:28.146Z,30.66
2023-05-07T18:41:01.110Z,30.78
2023-05-07T18:43:27.768Z,31.03
2023-05-07T18:45:54.446Z,31.08
2023-05-07T18:48:21.106Z,31.27
2023-05-07T18:50:48.139Z,31.33
2023-05-07T18:53:14.789Z,31.77
2023-05-07T18:55:41.660Z,31.91
2023-05-07T18:58:08.356Z,31.74
2023-05-07T19:00:34.989Z,32.10
2023-05-07T19:03:01.855Z,31.82
2023-05-07T19:05:28.567Z,32.21
2023-05-07T19:07:55.270Z,32.36
2023-05-07T19:10:22.180Z,32.45
2023-05-07T19:12:51.399Z,32.72
2023-05-07T19:15:18.130Z,32.71
2023-05-07T19:17:44.816Z,33.17
2023-05-07T19:20:12.034Z,32.87
2023-05-07T19:22:38.694Z,32.85
2023-05-07T19:25:05.979Z,33.60
2023-05-07T19:27:32.613Z,33.50
2023-05-07T19:29:59.293Z,33.46
2023-05-07T19:32:26.430Z,33.74
2023-05-07T19:34:53.174Z,33.69
2023-05-07T19:37:22.923Z,34.03
2023-05-07T19:39:49.750Z,34.00
2023-05-07T19:42:16.819Z,34.24
2023-05-07T19:44:43.744Z,34.43
2023-05-07T19:47:11.162Z,34.11
2023-05-07T19:49:38.123Z,34.45
2023-05-07T19:52:05.035Z,34.54
2023-05-07T19:54:31.720Z,35.09
2023-05-07T19:56:58.455Z,35.34
2023-05-07T19:59:25.318Z,35.16
2023-05-07T20:01:52.025Z,35.76
2023-05-07T20:04:18.708Z,35.66
2023-05-07T20:06:45.389Z,35.78
2023-05-07T20:09:12.995Z,36.01
2023-05-07T20:11:40.057Z,36.17
2023-05-07T20:14:06.807Z,36.32
2023-05-07T20:16:33.885Z,36.44
2023-05-07T20:19:00.874Z,36.40
2023-05-07T20:21:27.662Z,36.50
2023-05-07T20:23:54.559Z,36.82
2023-05-07T20:26:21.439Z,37.18
2023-05-07T20:28:48.214Z,37.04
2023-05-07T20:31:16.417Z,37.47
2023-05-07T20:33:43.100Z,37.71
2023-05-07T20:36:09.836Z,37.63
2023-05-07T20:38:36.462Z,37.12
2023-05-07T20:41:07.666Z,37.98
2023-05-07T20:43:35.488Z,37.48
2023-05-07T20:46:05.730Z,37.79
2023-05-07T20:48:33.247Z,38.22
2023-05-07T20:51:01.255Z,38.08
2023-05-07T20:53:29.778Z,37.82
2023-05-07T20:55:56.968Z,38.26
2023-05-07T20:58:26.744Z,38.28
2023-05-07T21:00:54.121Z,39.07
2023-05-07T21:03:21.569Z,39.18
2023-05-07T21:05:52.708Z,39.20
2023-05-07T21:08:19.904Z,39.32
2023-05-07T21:10:47.194Z,39.29
2023-05-07T21:13:14.096Z,39.25
2023-05-07T21:15:43.774Z,39.69
2023-05-07T21:18:11.578Z,39.65
2023-05-07T21:20:38.451Z,39.84
2023-05-07T21:23:05.731Z,39.67
2023-05-07T21:25:32.584Z,39.98
2023-05-07T21:27:59.893Z,40.24
2023-05-07T21:30:26.580Z,40.60
2023-05-07T21:32:55.623Z,40.33
2023-05-07T21:35:22.535Z,40.57
2023-05-07T21:37:49.278Z,41.01
2023-05-07T21:40:16.067Z,40.77
2023-05-07T21:42:42.742Z,41.08
2023-05-07T21:45:10.018Z,41.11
2023-05-07T21:47:36.793Z,41.15
2023-05-07T21:50:03.776Z,41.17
2023-05-07T21:52:30.454Z,41.21
2023-05-07T21:54:57.181Z,41.59
2023-05-07T21:57:23.848Z,41.58
2023-05-07T21:59:50.545Z,41.46
2023-05-07T22:02:17.273Z,41.81
2023-05-07T22:04:44.078Z,41.90
2023-05-07T22:07:10.722Z,42.23
2023-05-07T22:09:37.401Z,42.06
2023-05-07T22:12:04.325Z,42.13
2023-05-07T22:14:30.991Z,42.28
2023-05-07T22:16:57.709Z,42.48
2023-05-07T22:19:24.482Z,42.59
2023-05-07T22:21:51.190Z,42.86
2023-05-07T22:24:17.836Z,43.05
2023-05-07T22:26:45.220Z,42.99
2023-05-07T22:29:11.884Z,42.82
2023-05-07T22:31:38.634Z,42.74
2023-05-07T22:34:05.378Z,42.93
2023-05-07T22:36:32.065Z,43.26
2023-05-07T22:38:58.768Z,43.37
2023-05-07T22:41:25.741Z,43.33
2023-05-07T22:43:52.474Z,43.88
2023-05-07T22:46:19.196Z,43.44
2023-05-07T22:48:46.013Z,43.85
2023-05-07T22:51:14.422Z,43.29
2023-05-07T22:53:41.140Z,43.82
2023-05-07T22:56:08.383Z,44.00
2023-05-07T22:58:35.032Z,43.69
2023-05-07T23:01:02.505Z,43.99
2023-05-07T23:03:29.623Z,44.16
2023-05-07T23:05:56.335Z,43.72
2023-05-07T23:08:23.403Z,44.17
2023-05-07T23:10:50.063Z,44.26
2023-05-07T23:13:17.539Z,44.19
2023-05-07T23:15:44.523Z,44.32
2023-05-07T23:18:11.406Z,44.27
2023-05-07T23:20:39.771Z,44.35
2023-05-07T23:23:06.437Z,44.62
2023-05-07T23:25:33.187Z,44.88
2023-05-07T23:27:59.914Z,44.47
2023-05-07T23:30:26.684Z,45.05
2023-05-07T23:32:53.502Z,44.92
2023-05-07T23:35:20.403Z,44.52
2023-05-07T23:37:47.318Z,44.77
2023-05-07T23:40:14.177Z,44.39
2023-05-07T23:42:41.010Z,45.01
2023-05-07T23:45:08.082Z,44.59
2023-05-07T23:47:34.812Z,45.25
2023-05-07T23:50:01.500Z,45.09
2023-05-07T23:52:28.177Z,45.59
2023-05-07T23:54:54.822Z,45.26
2023-05-07T23:57:21.475Z,45.46
2023-05-07T23:59:48.124Z,45.53
